Time;durP1;ratioP1;P1;durP2;ratioP2;P2;SDS_P1;SDS_P2;PMS_P1;PMS_P2;Temp;Humidity;BMP_temperature;BMP_pressure;BME280_temperature;BME280_humidity;BME280_pressure;Samples;Min_cycle;Max_cycle;Signal;HPM_P1;HPM_P2
2022/11/01 00:00:44;;;;;;;33.33;17.00;;;;;;;;;;5075288;28;20555;-70
2022/11/01 00:03:11;;;;;;;25.57;15.73;;;;;;;;;;5075633;28;20485;-71
2022/11/01 00:05:38;;;;;;;26.63;15.80;;;;;;;;;;5075452;28;20464;-71
2022/11/01 00:08:05;;;;;;;24.83;14.37;;;;;;;;;;5075236;28;20882;-70
2022/11/01 00:10:32;;;;;;;21.73;15.17;;;;;;;;;;5076528;28;20448;-71
2022/11/01 00:13:00;;;;;;;24.93;14.40;;;;;;;;;;5075869;28;20967;-71
2022/11/01 00:15:27;;;;;;;31.07;15.57;;;;;;;;;;5074571;28;20507;-71
2022/11/01 00:17:54;;;;;;;26.00;15.80;;;;;;;;;;5074835;28;20762;-70
2022/11/01 00:20:21;;;;;;;24.47;15.53;;;;;;;;;;5074934;28;20452;-71
2022/11/01 00:22:49;;;;;;;24.77;14.67;;;;;;;;;;5075189;28;20522;-71
2022/11/01 00:25:16;;;;;;;25.37;15.03;;;;;;;;;;5074908;28;20858;-71
2022/11/01 00:27:43;;;;;;;26.60;15.57;;;;;;;;;;5075013;28;20745;-70
2022/11/01 00:30:11;;;;;;;22.43;15.20;;;;;;;;;;5075188;28;20445;-70
2022/11/01 00:32:38;;;;;;;30.20;17.50;;;;;;;;;;5074684;28;20456;-71
2022/11/01 00:35:05;;;;;;;26.27;14.80;;;;;;;;;;5074802;28;20558;-70
2022/11/01 00:37:33;;;;;;;29.53;16.07;;;;;;;;;;5075700;28;20482;-71
2022/11/01 00:39:59;;;;;;;28.50;16.60;;;;;;;;;;5075525;28;20455;-71
2022/11/01 00:42:26;;;;;;;23.13;15.83;;;;;;;;;;5074711;28;20459;-71
2022/11/01 00:44:53;;;;;;;39.93;16.53;;;;;;;;;;5074439;28;20452;-71
2022/11/01 00:47:21;;;;;;;24.63;15.60;;;;;;;;;;5074733;28;20555;-71
2022/11/01 00:49:48;;;;;;;27.70;16.17;;;;;;;;;;5074799;28;20537;-71
2022/11/01 00:52:15;;;;;;;33.03;17.87;;;;;;;;;;5075260;28;20440;-70
2022/11/01 00:54:42;;;;;;;32.40;20.83;;;;;;;;;;5074857;28;20476;-70
2022/11/01 00:57:09;;;;;;;32.57;18.20;;;;;;;;;;5075136;28;20487;-71
2022/11/01 00:59:36;;;;;;;34.77;17.20;;;;;;;;;;5075595;28;20480;-71
2022/11/01 01:02:03;;;;;;;33.30;20.43;;;;;;;;;;5074784;28;20460;-70
2022/11/01 01:04:31;;;;;;;27.83;17.23;;;;;;;;;;5075236;28;20599;-70
2022/11/01 01:06:58;;;;;;;35.03;19.20;;;;;;;;;;5075056;28;20453;-70
2022/11/01 01:09:25;;;;;;;38.37;20.20;;;;;;;;;;5073949;28;20460;-70
2022/11/01 01:12:04;;;;;;;32.33;18.80;;;;;;;;;;5074865;28;20934;-69
2022/11/01 01:14:31;;;;;;;36.13;19.50;;;;;;;;;;5074908;28;20461;-70
2022/11/01 01:16:58;;;;;;;40.23;21.60;;;;;;;;;;5074877;28;20852;-71
2022/11/01 01:19:25;;;;;;;40.97;21.60;;;;;;;;;;5074195;28;20536;-71
2022/11/01 01:21:53;;;;;;;38.97;22.50;;;;;;;;;;5073928;28;20444;-71
2022/11/01 01:24:20;;;;;;;38.53;20.60;;;;;;;;;;5074681;28;20488;-71
2022/11/01 01:26:48;;;;;;;39.73;21.70;;;;;;;;;;5074245;28;20484;-70
2022/11/01 01:29:16;;;;;;;38.20;19.60;;;;;;;;;;5075242;28;20468;-71
2022/11/01 01:31:43;;;;;;;41.53;20.03;;;;;;;;;;5077637;28;20833;-71
2022/11/01 01:34:10;;;;;;;37.67;21.00;;;;;;;;;;5078012;28;20547;-71
2022/11/01 01:36:37;;;;;;;40.90;21.63;;;;;;;;;;5078485;28;20448;-71
2022/11/01 01:39:10;;;;;;;41.60;24.60;;;;;;;;;;5078079;28;20479;-71
2022/11/01 01:41:58;;;;;;;37.37;23.10;;;;;;;;;;5078112;28;20864;-71
2022/11/01 01:44:43;;;;;;;39.87;22.50;;;;;;;;;;5077466;28;20492;-70
2022/11/01 01:47:12;;;;;;;44.03;22.53;;;;;;;;;;5078246;28;20455;-71
2022/11/01 01:49:40;;;;;;;48.10;24.20;;;;;;;;;;5077161;28;20537;-71
2022/11/01 01:52:07;;;;;;;42.17;20.97;;;;;;;;;;5078148;28;20476;-70
2022/11/01 01:54:37;;;;;;;43.83;22.90;;;;;;;;;;5077984;28;20475;-70
2022/11/01 01:57:05;;;;;;;47.20;24.33;;;;;;;;;;5077149;28;20856;-71
2022/11/01 01:59:33;;;;;;;46.73;23.73;;;;;;;;;;5077501;28;20457;-71
2022/11/01 02:02:00;;;;;;;52.83;26.63;;;;;;;;;;5077728;28;20940;-71
2022/11/01 02:04:31;;;;;;;49.57;23.97;;;;;;;;;;5076861;28;20495;-70
2022/11/01 02:06:58;;;;;;;48.20;24.73;;;;;;;;;;5077849;28;20735;-71
2022/11/01 02:09:25;;;;;;;45.97;23.70;;;;;;;;;;5077046;28;20456;-71
2022/11/01 02:11:52;;;;;;;45.80;24.27;;;;;;;;;;5077369;28;20488;-71
2022/11/01 02:14:21;;;;;;;56.37;26.53;;;;;;;;;;5077827;28;20468;-71
2022/11/01 02:16:51;;;;;;;47.50;25.10;;;;;;;;;;5077306;28;20469;-70
2022/11/01 02:19:42;;;;;;;41.67;24.03;;;;;;;;;;5077086;28;20473;-70
2022/11/01 02:22:11;;;;;;;46.33;25.50;;;;;;;;;;5057432;28;20468;-71
2022/11/01 02:25:09;;;;;;;45.03;25.03;;;;;;;;;;5076622;28;20484;-71
2022/11/01 02:27:47;;;;;;;41.37;25.20;;;;;;;;;;5032150;28;20962;-70
2022/11/01 02:30:18;;;;;;;50.50;26.87;;;;;;;;;;5076705;28;20572;-71
2022/11/01 02:33:00;;;;;;;47.90;25.40;;;;;;;;;;5076902;28;20495;-71
2022/11/01 02:35:30;;;;;;;50.10;25.10;;;;;;;;;;5074185;28;20555;-71
2022/11/01 02:38:01;;;;;;;40.30;21.90;;;;;;;;;;5076303;28;20555;-70
2022/11/01 02:40:31;;;;;;;40.67;23.87;;;;;;;;;;5076329;28;20727;-71
2022/11/01 02:43:01;;;;;;;43.63;25.60;;;;;;;;;;5076399;28;20633;-71
2022/11/01 02:45:31;;;;;;;51.20;26.13;;;;;;;;;;5076766;28;20888;-70
2022/11/01 02:47:59;;;;;;;52.17;26.23;;;;;;;;;;5077267;28;20487;-71
2022/11/01 02:50:27;;;;;;;50.63;27.10;;;;;;;;;;5076587;28;20448;-70
2022/11/01 02:52:56;;;;;;;41.57;23.07;;;;;;;;;;5076751;28;20475;-71
2022/11/01 02:55:30;;;;;;;51.10;24.33;;;;;;;;;;5076811;28;20448;-71
2022/11/01 02:57:58;;;;;;;47.93;25.53;;;;;;;;;;5076663;28;20447;-70
2022/11/01 03:00:27;;;;;;;43.87;23.20;;;;;;;;;;5076250;28;20480;-71
2022/11/01 03:02:57;;;;;;;48.63;26.30;;;;;;;;;;5076327;28;20499;-70
2022/11/01 03:05:27;;;;;;;49.07;26.40;;;;;;;;;;5076325;28;20507;-71
2022/11/01 03:07:58;;;;;;;46.03;26.30;;;;;;;;;;5076256;28;20464;-71
2022/11/01 03:10:30;;;;;;;47.80;25.23;;;;;;;;;;5076902;28;20464;-71
2022/11/01 03:12:59;;;;;;;47.50;23.97;;;;;;;;;;5076959;28;20456;-71
2022/11/01 03:15:28;;;;;;;49.47;25.27;;;;;;;;;;5076361;28;20456;-71
2022/11/01 03:17:59;;;;;;;46.77;26.43;;;;;;;;;;5075429;28;20736;-71
2022/11/01 03:20:46;;;;;;;49.47;25.20;;;;;;;;;;5075782;28;20453;-71
2022/11/01 03:23:15;;;;;;;48.73;23.90;;;;;;;;;;5076685;28;20488;-70
2022/11/01 03:25:44;;;;;;;43.60;25.27;;;;;;;;;;5075575;28;20491;-70
2022/11/01 03:28:12;;;;;;;48.97;26.80;;;;;;;;;;5076122;28;20950;-70
2022/11/01 03:30:43;;;;;;;48.23;25.40;;;;;;;;;;5076154;28;20461;-71
2022/11/01 03:33:10;;;;;;;50.80;25.53;;;;;;;;;;5076170;28;21043;-71
2022/11/01 03:35:39;;;;;;;40.13;23.93;;;;;;;;;;5075879;28;20624;-71
2022/11/01 03:38:08;;;;;;;42.20;25.13;;;;;;;;;;5076278;28;20459;-71
2022/11/01 03:40:37;;;;;;;42.17;25.30;;;;;;;;;;5076028;28;20867;-70
2022/11/01 03:43:06;;;;;;;44.80;25.13;;;;;;;;;;5075738;28;20480;-71
2022/11/01 03:45:42;;;;;;;48.30;25.20;;;;;;;;;;5075525;28;20452;-70
2022/11/01 03:48:09;;;;;;;37.83;23.17;;;;;;;;;;5075870;28;21092;-71
2022/11/01 03:50:37;;;;;;;48.47;24.20;;;;;;;;;;5075548;28;20471;-70
2022/11/01 03:53:04;;;;;;;46.27;25.60;;;;;;;;;;5073927;28;20452;-71
2022/11/01 03:55:31;;;;;;;44.77;25.40;;;;;;;;;;5075636;28;20452;-71
2022/11/01 03:57:59;;;;;;;48.30;25.37;;;;;;;;;;5075771;28;20882;-71
2022/11/01 04:00:27;;;;;;;43.60;25.03;;;;;;;;;;5074680;28;20452;-70
2022/11/01 04:02:55;;;;;;;44.50;25.47;;;;;;;;;;5075194;28;20491;-71
2022/11/01 04:05:22;;;;;;;43.30;24.57;;;;;;;;;;5074684;28;20461;-71
2022/11/01 04:07:50;;;;;;;50.27;26.30;;;;;;;;;;5075711;28;20459;-71
2022/11/01 04:10:18;;;;;;;47.13;26.53;;;;;;;;;;5075981;28;21073;-71
2022/11/01 04:12:45;;;;;;;52.37;26.27;;;;;;;;;;5075105;28;20991;-70
2022/11/01 04:20:52;;;;;;;41.03;23.90;;;;;;;;;;5074629;28;20474;-69
2022/11/01 04:23:19;;;;;;;43.07;24.33;;;;;;;;;;5074874;28;20488;-69
2022/11/01 04:25:46;;;;;;;51.40;26.53;;;;;;;;;;5075344;28;20456;-70
2022/11/01 04:28:13;;;;;;;48.27;26.57;;;;;;;;;;5075161;28;20452;-69
2022/11/01 04:30:41;;;;;;;47.13;28.00;;;;;;;;;;5075072;28;20521;-69
2022/11/01 04:33:08;;;;;;;47.00;25.70;;;;;;;;;;5075318;28;20813;-70
2022/11/01 04:35:36;;;;;;;44.87;24.60;;;;;;;;;;5075949;28;20464;-69
2022/11/01 04:38:03;;;;;;;45.93;25.30;;;;;;;;;;5074696;28;20445;-70
2022/11/01 04:40:31;;;;;;;47.17;27.40;;;;;;;;;;5075264;28;20471;-70
2022/11/01 04:42:58;;;;;;;57.73;27.23;;;;;;;;;;5074718;28;20441;-69
2022/11/01 04:45:25;;;;;;;51.40;26.00;;;;;;;;;;5074896;28;20456;-69
2022/11/01 04:48:01;;;;;;;56.33;29.03;;;;;;;;;;5075166;28;20457;-69
2022/11/01 04:50:28;;;;;;;48.03;26.23;;;;;;;;;;5076362;28;20517;-71
2022/11/01 04:52:55;;;;;;;51.53;28.70;;;;;;;;;;5074671;28;20460;-70
2022/11/01 04:55:22;;;;;;;51.00;27.23;;;;;;;;;;5073539;28;20460;-71
2022/11/01 04:57:49;;;;;;;42.37;26.87;;;;;;;;;;5064867;28;20473;-71
2022/11/01 05:00:17;;;;;;;51.50;27.63;;;;;;;;;;5055584;28;20453;-71
2022/11/01 05:02:44;;;;;;;55.50;30.60;;;;;;;;;;5055028;28;20548;-71
2022/11/01 05:05:12;;;;;;;43.13;24.33;;;;;;;;;;5054756;28;20457;-71
2022/11/01 05:07:40;;;;;;;50.47;27.27;;;;;;;;;;5056195;28;20465;-70
2022/11/01 05:10:07;;;;;;;47.77;26.87;;;;;;;;;;5054959;28;20547;-71
2022/11/01 05:12:34;;;;;;;51.27;27.50;;;;;;;;;;5054312;28;20492;-71
2022/11/01 05:15:01;;;;;;;48.73;27.23;;;;;;;;;;5054561;28;20464;-71
2022/11/01 05:17:28;;;;;;;46.93;26.90;;;;;;;;;;5054366;28;20453;-71
2022/11/01 05:19:55;;;;;;;41.97;26.70;;;;;;;;;;5054109;28;20456;-71
2022/11/01 05:22:23;;;;;;;46.57;27.93;;;;;;;;;;5054809;28;20467;-71
2022/11/01 05:24:51;;;;;;;47.90;25.53;;;;;;;;;;5054696;28;21234;-71
2022/11/01 05:27:18;;;;;;;47.27;26.90;;;;;;;;;;5053789;28;20449;-71
2022/11/01 05:29:46;;;;;;;52.60;27.97;;;;;;;;;;5054058;28;20468;-70
2022/11/01 05:32:13;;;;;;;51.23;29.20;;;;;;;;;;5053936;28;20852;-71
2022/11/01 05:34:39;;;;;;;48.07;28.27;;;;;;;;;;5054500;28;20786;-71
2022/11/01 05:37:07;;;;;;;49.60;27.87;;;;;;;;;;5054023;28;20547;-71
2022/11/01 05:39:34;;;;;;;49.20;24.10;;;;;;;;;;5053312;28;20453;-70
2022/11/01 05:42:01;;;;;;;54.27;27.30;;;;;;;;;;5053553;28;20454;-71
2022/11/01 05:44:29;;;;;;;47.47;25.60;;;;;;;;;;5053646;28;20551;-70
2022/11/01 05:46:56;;;;;;;41.70;25.07;;;;;;;;;;5054203;28;20964;-71
2022/11/01 05:49:23;;;;;;;50.23;27.77;;;;;;;;;;5058369;28;20492;-71
2022/11/01 05:51:50;;;;;;;46.40;25.00;;;;;;;;;;5073307;28;20732;-71
2022/11/01 05:54:17;;;;;;;45.73;26.33;;;;;;;;;;5072770;28;20499;-71
2022/11/01 05:56:45;;;;;;;50.73;27.37;;;;;;;;;;5074044;28;20728;-70
2022/11/01 05:59:12;;;;;;;48.23;25.30;;;;;;;;;;5073372;28;20781;-71
2022/11/01 06:01:39;;;;;;;52.13;28.13;;;;;;;;;;5073813;28;20464;-70
2022/11/01 06:04:06;;;;;;;46.37;28.30;;;;;;;;;;5072532;28;20490;-71
2022/11/01 06:06:33;;;;;;;50.40;27.23;;;;;;;;;;5071647;28;20460;-71
2022/11/01 06:09:01;;;;;;;47.13;27.23;;;;;;;;;;5070366;28;20527;-70
2022/11/01 06:11:31;;;;;;;48.13;27.60;;;;;;;;;;5072884;28;20491;-71
2022/11/01 06:13:59;;;;;;;44.27;26.77;;;;;;;;;;5071874;28;20453;-71
2022/11/01 06:16:26;;;;;;;55.63;28.50;;;;;;;;;;5074968;28;20460;-71
2022/11/01 06:18:53;;;;;;;44.90;26.30;;;;;;;;;;5074137;28;21040;-70
2022/11/01 06:21:21;;;;;;;50.20;27.40;;;;;;;;;;5074406;28;20569;-71
2022/11/01 06:23:49;;;;;;;54.17;27.03;;;;;;;;;;5073028;28;20492;-71
2022/11/01 06:26:16;;;;;;;44.83;25.87;;;;;;;;;;5072935;28;20452;-71
2022/11/01 06:28:44;;;;;;;44.37;26.10;;;;;;;;;;5067839;28;20441;-71
2022/11/01 06:31:14;;;;;;;50.13;26.60;;;;;;;;;;5073947;28;20460;-71
2022/11/01 06:33:41;;;;;;;49.23;27.80;;;;;;;;;;5074478;28;20506;-71
2022/11/01 06:36:21;;;;;;;42.67;25.87;;;;;;;;;;5072635;28;20461;-71
2022/11/01 06:38:48;;;;;;;47.73;27.87;;;;;;;;;;5074542;28;20459;-71
2022/11/01 06:41:15;;;;;;;49.67;25.43;;;;;;;;;;5073087;28;20468;-72
2022/11/01 06:43:42;;;;;;;46.17;26.27;;;;;;;;;;5072995;28;20484;-71
2022/11/01 06:46:12;;;;;;;46.30;26.23;;;;;;;;;;5073485;28;20452;-71
2022/11/01 06:48:43;;;;;;;50.80;28.43;;;;;;;;;;5073542;28;20483;-71
2022/11/01 06:51:13;;;;;;;53.17;26.87;;;;;;;;;;5073415;28;20480;-71
2022/11/01 06:53:40;;;;;;;43.87;24.30;;;;;;;;;;5073034;28;20486;-70
2022/11/01 06:56:08;;;;;;;54.67;27.20;;;;;;;;;;5074620;28;20465;-71
2022/11/01 06:58:35;;;;;;;39.83;25.13;;;;;;;;;;5074472;28;20451;-70
2022/11/01 07:01:05;;;;;;;51.90;27.07;;;;;;;;;;5073945;28;20464;-70
2022/11/01 07:03:32;;;;;;;51.67;25.60;;;;;;;;;;5073866;28;20502;-70
2022/11/01 07:06:00;;;;;;;45.70;27.17;;;;;;;;;;5072126;28;20464;-70
2022/11/01 07:08:30;;;;;;;41.73;24.13;;;;;;;;;;5072718;28;20602;-71
2022/11/01 07:11:00;;;;;;;44.63;24.90;;;;;;;;;;5071838;28;20904;-71
2022/11/01 07:13:32;;;;;;;44.00;24.97;;;;;;;;;;5072861;28;20468;-71
2022/11/01 07:16:02;;;;;;;38.07;24.03;;;;;;;;;;5053245;28;20729;-71
2022/11/01 07:18:30;;;;;;;44.23;24.43;;;;;;;;;;5054073;28;20518;-70
2022/11/01 07:20:57;;;;;;;43.20;24.63;;;;;;;;;;5070570;28;20587;-69
2022/11/01 07:23:24;;;;;;;39.93;23.07;;;;;;;;;;5068512;28;20481;-70
2022/11/01 07:25:53;;;;;;;35.27;21.23;;;;;;;;;;5062948;28;20484;-69
2022/11/01 07:28:30;;;;;;;38.07;21.90;;;;;;;;;;5067023;28;20542;-71
2022/11/01 07:31:01;;;;;;;36.90;22.30;;;;;;;;;;5062310;28;20966;-69
2022/11/01 07:33:32;;;;;;;43.93;24.77;;;;;;;;;;5073050;28;20463;-73
2022/11/01 07:36:00;;;;;;;41.07;24.53;;;;;;;;;;5057448;28;20465;-70
2022/11/01 07:38:31;;;;;;;41.67;24.03;;;;;;;;;;5069959;28;20483;-70
2022/11/01 07:41:11;;;;;;;42.63;24.37;;;;;;;;;;5068002;28;20473;-72
2022/11/01 07:43:41;;;;;;;34.17;23.10;;;;;;;;;;5072996;28;20487;-71
2022/11/01 07:46:11;;;;;;;38.80;23.00;;;;;;;;;;5073041;28;20456;-70
2022/11/01 07:48:43;;;;;;;43.33;22.27;;;;;;;;;;5066175;28;20464;-72
2022/11/01 07:51:14;;;;;;;38.47;19.93;;;;;;;;;;5068794;28;20460;-72
2022/11/01 07:53:48;;;;;;;42.53;21.00;;;;;;;;;;5073636;28;20460;-71
2022/11/01 07:56:20;;;;;;;38.83;21.90;;;;;;;;;;5071127;28;20516;-71
2022/11/01 07:58:50;;;;;;;34.10;21.27;;;;;;;;;;5071360;28;20476;-72
2022/11/01 08:04:22;;;;;;;38.37;20.57;;;;;;;;;;5061392;28;20535;-71
2022/11/01 08:06:53;;;;;;;33.10;19.50;;;;;;;;;;5057743;28;20504;-71
2022/11/01 08:09:41;;;;;;;30.83;18.67;;;;;;;;;;5070199;28;20464;-72
2022/11/01 08:12:14;;;;;;;29.13;18.60;;;;;;;;;;5063770;28;20547;-71
2022/11/01 08:14:42;;;;;;;29.00;17.87;;;;;;;;;;5054368;28;21005;-71
2022/11/01 08:17:10;;;;;;;26.83;16.33;;;;;;;;;;5066749;28;20452;-71
2022/11/01 08:19:43;;;;;;;29.13;17.00;;;;;;;;;;5067910;28;20453;-72
2022/11/01 08:22:19;;;;;;;32.43;18.90;;;;;;;;;;5054765;28;20506;-72
2022/11/01 08:24:47;;;;;;;31.47;16.83;;;;;;;;;;5070682;28;20484;-71
2022/11/01 08:27:16;;;;;;;26.33;17.10;;;;;;;;;;5072393;28;20472;-72
2022/11/01 08:29:44;;;;;;;26.20;16.60;;;;;;;;;;5071028;28;20467;-71
2022/11/01 08:32:11;;;;;;;30.50;16.70;;;;;;;;;;5052148;28;20500;-72
2022/11/01 08:34:42;;;;;;;25.40;14.40;;;;;;;;;;5054209;28;20750;-71
2022/11/01 08:39:54;;;;;;;16.83;10.50;;;;;;;;;;5073006;28;20491;-71
2022/11/01 08:42:23;;;;;;;13.80;10.77;;;;;;;;;;5062272;28;20461;-72
2022/11/01 08:44:50;;;;;;;16.43;9.23;;;;;;;;;;5052780;28;20485;-72
2022/11/01 08:47:17;;;;;;;10.50;7.70;;;;;;;;;;5053136;28;20538;-72
2022/11/01 08:49:50;;;;;;;15.60;7.40;;;;;;;;;;5062726;28;20457;-73
2022/11/01 08:52:17;;;;;;;10.00;5.70;;;;;;;;;;5073227;28;20448;-72
2022/11/01 08:54:46;;;;;;;10.63;6.27;;;;;;;;;;5059660;28;20515;-72
2022/11/01 08:57:19;;;;;;;9.33;6.20;;;;;;;;;;5054199;28;20469;-71
2022/11/01 08:59:48;;;;;;;8.17;5.67;;;;;;;;;;5065045;28;20461;-71
2022/11/01 09:02:18;;;;;;;9.47;5.30;;;;;;;;;;5052669;28;20447;-70
2022/11/01 09:04:46;;;;;;;9.27;5.13;;;;;;;;;;5053786;28;20639;-71
2022/11/01 09:07:14;;;;;;;14.10;7.67;;;;;;;;;;5052374;28;20457;-70
2022/11/01 09:09:47;;;;;;;9.23;4.70;;;;;;;;;;5056532;28;20455;-71
2022/11/01 09:12:21;;;;;;;8.03;4.10;;;;;;;;;;5066185;28;20463;-71
2022/11/01 09:14:51;;;;;;;8.47;4.67;;;;;;;;;;5060240;28;20461;-71
2022/11/01 09:17:18;;;;;;;9.10;4.00;;;;;;;;;;5073806;28;20448;-71
2022/11/01 09:19:45;;;;;;;7.20;4.83;;;;;;;;;;5060886;28;20506;-71
2022/11/01 09:22:19;;;;;;;7.40;5.57;;;;;;;;;;5052431;28;20693;-70
2022/11/01 09:24:48;;;;;;;10.83;5.20;;;;;;;;;;5058102;28;20848;-70
2022/11/01 09:27:15;;;;;;;7.73;4.50;;;;;;;;;;5051385;28;20449;-71
2022/11/01 09:29:43;;;;;;;12.63;5.40;;;;;;;;;;5066563;28;20460;-70
2022/11/01 09:32:17;;;;;;;9.63;5.70;;;;;;;;;;5058969;28;20530;-72
2022/11/01 09:34:52;;;;;;;8.27;4.87;;;;;;;;;;5060062;28;21017;-71
2022/11/01 09:37:19;;;;;;;6.17;4.33;;;;;;;;;;5064441;28;20872;-70
2022/11/01 09:39:49;;;;;;;8.97;5.13;;;;;;;;;;5069239;28;20452;-70
2022/11/01 09:42:22;;;;;;;6.93;4.73;;;;;;;;;;5070023;28;20433;-70
2022/11/01 09:45:08;;;;;;;10.10;4.17;;;;;;;;;;5067739;28;20480;-71
2022/11/01 09:47:47;;;;;;;7.27;4.00;;;;;;;;;;5067934;28;20886;-71
2022/11/01 09:50:21;;;;;;;8.63;5.10;;;;;;;;;;5065597;28;20487;-69
2022/11/01 09:52:59;;;;;;;6.30;3.70;;;;;;;;;;5059221;28;20460;-69
2022/11/01 09:55:37;;;;;;;8.37;3.60;;;;;;;;;;5066479;28;20466;-70
2022/11/01 09:58:21;;;;;;;7.43;3.70;;;;;;;;;;5073289;28;20496;-70
2022/11/01 10:00:57;;;;;;;7.97;4.10;;;;;;;;;;5065182;28;20460;-70
2022/11/01 10:03:48;;;;;;;6.53;3.67;;;;;;;;;;5066575;28;20589;-69
2022/11/01 10:06:21;;;;;;;17.07;9.97;;;;;;;;;;5045940;28;21108;-71
2022/11/01 10:08:52;;;;;;;6.93;5.50;;;;;;;;;;5073803;28;20980;-70
2022/11/01 10:11:44;;;;;;;7.53;3.70;;;;;;;;;;5061484;28;20487;-71
2022/11/01 10:14:17;;;;;;;5.73;3.07;;;;;;;;;;5075343;28;20468;-72
2022/11/01 10:17:05;;;;;;;6.77;3.13;;;;;;;;;;5071652;28;20464;-73
2022/11/01 10:19:35;;;;;;;7.33;3.20;;;;;;;;;;5074395;28;20486;-72
2022/11/01 10:22:07;;;;;;;8.83;3.90;;;;;;;;;;5077292;28;20892;-78
2022/11/01 10:24:58;;;;;;;6.17;3.37;;;;;;;;;;5071820;28;20606;-74
2022/11/01 10:27:31;;;;;;;8.23;3.53;;;;;;;;;;5076640;28;21028;-73
2022/11/01 10:30:00;;;;;;;8.93;3.90;;;;;;;;;;5077120;28;20521;-72
2022/11/01 10:32:34;;;;;;;10.30;3.70;;;;;;;;;;5073364;28;20525;-73
2022/11/01 10:35:04;;;;;;;6.20;3.40;;;;;;;;;;5061077;28;20448;-72
2022/11/01 10:37:35;;;;;;;7.23;3.43;;;;;;;;;;5071116;28;20457;-72
2022/11/01 10:40:15;;;;;;;6.80;3.30;;;;;;;;;;5068782;28;20460;-72
2022/11/01 10:42:51;;;;;;;7.80;3.90;;;;;;;;;;5078771;28;20970;-72
2022/11/01 10:45:21;;;;;;;5.37;3.03;;;;;;;;;;5076146;28;20484;-73
2022/11/01 10:48:04;;;;;;;4.33;2.90;;;;;;;;;;5071025;28;20507;-73
2022/11/01 10:50:31;;;;;;;5.40;2.33;;;;;;;;;;5074832;28;21106;-72
2022/11/01 10:53:12;;;;;;;5.30;2.50;;;;;;;;;;5074280;28;20517;-72
2022/11/01 10:56:02;;;;;;;5.93;3.33;;;;;;;;;;5067453;28;20469;-73
2022/11/01 10:58:32;;;;;;;5.40;3.33;;;;;;;;;;5066364;28;20452;-72
2022/11/01 11:01:02;;;;;;;5.93;2.90;;;;;;;;;;5063819;28;20963;-73
2022/11/01 11:03:58;;;;;;;6.70;2.57;;;;;;;;;;5070945;28;20459;-73
2022/11/01 11:06:29;;;;;;;5.23;2.73;;;;;;;;;;5061882;28;20469;-72
2022/11/01 11:08:57;;;;;;;7.03;2.67;;;;;;;;;;5067813;28;20994;-72
2022/11/01 11:11:30;;;;;;;4.27;1.87;;;;;;;;;;5069080;28;20461;-71
2022/11/01 11:14:02;;;;;;;3.80;3.27;;;;;;;;;;5063719;28;20476;-71
2022/11/01 11:16:35;;;;;;;5.97;2.67;;;;;;;;;;5066900;28;20556;-72
2022/11/01 11:19:18;;;;;;;3.10;2.03;;;;;;;;;;5062584;28;20555;-72
2022/11/01 11:21:47;;;;;;;8.20;2.10;;;;;;;;;;5060720;28;20460;-72
2022/11/01 11:24:26;;;;;;;7.63;3.40;;;;;;;;;;5072141;28;20488;-70
2022/11/01 11:27:24;;;;;;;7.13;2.83;;;;;;;;;;5072775;28;20475;-72
2022/11/01 11:29:52;;;;;;;4.47;2.43;;;;;;;;;;5053587;28;20479;-71
2022/11/01 11:32:20;;;;;;;2.97;1.70;;;;;;;;;;5067445;28;20938;-71
2022/11/01 11:34:53;;;;;;;5.13;2.03;;;;;;;;;;5070230;28;20771;-71
2022/11/01 11:37:22;;;;;;;2.50;1.50;;;;;;;;;;5072197;28;20670;-71
2022/11/01 11:40:05;;;;;;;3.00;1.70;;;;;;;;;;5056400;28;20552;-73
2022/11/01 11:42:40;;;;;;;3.27;1.70;;;;;;;;;;5045396;28;20465;-74
2022/11/01 11:45:15;;;;;;;3.03;1.60;;;;;;;;;;5069012;28;21336;-70
2022/11/01 11:47:42;;;;;;;2.27;1.23;;;;;;;;;;5068702;28;20479;-69
2022/11/01 11:50:34;;;;;;;2.70;1.20;;;;;;;;;;5070374;28;20968;-68
2022/11/01 11:53:05;;;;;;;3.53;1.33;;;;;;;;;;5067509;28;20510;-69
2022/11/01 11:55:38;;;;;;;2.80;0.90;;;;;;;;;;5055659;28;20457;-70
2022/11/01 11:58:06;;;;;;;4.80;1.93;;;;;;;;;;5053587;28;20619;-70
2022/11/01 12:00:34;;;;;;;4.97;1.23;;;;;;;;;;5066969;28;20889;-71
2022/11/01 12:03:06;;;;;;;4.07;1.00;;;;;;;;;;5052074;28;20454;-71
2022/11/01 12:05:35;;;;;;;4.40;3.37;;;;;;;;;;5069755;28;20537;-71
2022/11/01 12:08:02;;;;;;;3.27;1.30;;;;;;;;;;5072351;28;20461;-69
2022/11/01 12:10:31;;;;;;;4.90;1.20;;;;;;;;;;5071180;28;20436;-71
2022/11/01 12:12:59;;;;;;;5.37;1.17;;;;;;;;;;5070246;28;20884;-71
2022/11/01 12:15:27;;;;;;;2.03;0.90;;;;;;;;;;5071430;28;20472;-70
2022/11/01 12:17:55;;;;;;;2.40;0.80;;;;;;;;;;5070312;28;20469;-70
2022/11/01 12:20:23;;;;;;;2.73;1.23;;;;;;;;;;5071603;28;20445;-71
2022/11/01 12:22:55;;;;;;;3.00;1.10;;;;;;;;;;5071153;28;20456;-72
2022/11/01 12:25:27;;;;;;;2.23;0.70;;;;;;;;;;5065153;28;20484;-70
2022/11/01 12:28:00;;;;;;;3.40;1.00;;;;;;;;;;5057917;28;20465;-69
2022/11/01 12:30:37;;;;;;;2.60;1.03;;;;;;;;;;5067738;28;20456;-70
2022/11/01 12:33:13;;;;;;;2.83;0.70;;;;;;;;;;5068825;28;20600;-72
2022/11/01 12:35:43;;;;;;;2.70;0.80;;;;;;;;;;5069671;28;20490;-73
2022/11/01 12:38:23;;;;;;;6.00;1.17;;;;;;;;;;5058425;28;20461;-73
2022/11/01 12:40:52;;;;;;;8.50;1.37;;;;;;;;;;5058627;28;20548;-72
2022/11/01 12:43:23;;;;;;;4.23;1.17;;;;;;;;;;5055713;28;20477;-72
2022/11/01 12:45:52;;;;;;;5.60;1.27;;;;;;;;;;5066365;28;20469;-74
2022/11/01 12:48:23;;;;;;;2.77;1.17;;;;;;;;;;5058110;28;20468;-72
2022/11/01 12:50:53;;;;;;;3.17;1.30;;;;;;;;;;5059774;28;20464;-72
2022/11/01 12:53:31;;;;;;;6.80;1.10;;;;;;;;;;5070911;28;20563;-72
2022/11/01 12:55:59;;;;;;;4.27;1.23;;;;;;;;;;5065783;28;20456;-73
2022/11/01 12:58:34;;;;;;;5.90;1.00;;;;;;;;;;5066543;28;20571;-71
2022/11/01 13:01:22;;;;;;;4.30;1.40;;;;;;;;;;5065725;28;20485;-72
2022/11/01 13:03:57;;;;;;;5.53;1.80;;;;;;;;;;5064632;28;20488;-71
2022/11/01 13:06:39;;;;;;;3.90;1.10;;;;;;;;;;5063686;28;20453;-71
2022/11/01 13:09:30;;;;;;;4.93;0.90;;;;;;;;;;5062366;28;20525;-71
2022/11/01 13:12:06;;;;;;;4.17;1.13;;;;;;;;;;5064063;28;20473;-70
2022/11/01 13:14:41;;;;;;;8.43;1.97;;;;;;;;;;5066705;28;20861;-70
2022/11/01 13:17:16;;;;;;;6.30;1.07;;;;;;;;;;5057443;28;20460;-71
2022/11/01 13:19:50;;;;;;;4.40;1.20;;;;;;;;;;5065883;28;20551;-72
2022/11/01 13:22:20;;;;;;;4.80;1.47;;;;;;;;;;5058677;28;20469;-71
2022/11/01 13:24:55;;;;;;;3.40;1.30;;;;;;;;;;5057935;28;20900;-72
2022/11/01 13:27:30;;;;;;;2.63;1.03;;;;;;;;;;5073994;28;20559;-71
2022/11/01 13:30:02;;;;;;;2.20;0.80;;;;;;;;;;5074855;28;20468;-70
2022/11/01 13:32:50;;;;;;;3.43;1.63;;;;;;;;;;5073016;28;20789;-70
2022/11/01 13:35:41;;;;;;;3.73;1.30;;;;;;;;;;5070736;28;20475;-69
2022/11/01 13:38:14;;;;;;;4.93;1.20;;;;;;;;;;5072069;28;21067;-71
2022/11/01 13:40:49;;;;;;;8.93;1.50;;;;;;;;;;5070623;28;20555;-69
2022/11/01 13:43:20;;;;;;;4.37;0.90;;;;;;;;;;5071748;28;20455;-69
2022/11/01 13:46:02;;;;;;;7.57;1.17;;;;;;;;;;5074044;28;20488;-71
2022/11/01 13:48:37;;;;;;;3.87;0.90;;;;;;;;;;5072183;28;20479;-72
2022/11/01 13:51:12;;;;;;;4.53;0.90;;;;;;;;;;5066193;28;20556;-72
2022/11/01 13:53:41;;;;;;;3.93;1.00;;;;;;;;;;5069336;28;20520;-72
2022/11/01 13:56:14;;;;;;;4.30;1.27;;;;;;;;;;5067373;28;20491;-72
2022/11/01 13:58:41;;;;;;;3.73;1.20;;;;;;;;;;5068362;28;20520;-72
2022/11/01 14:01:29;;;;;;;4.37;1.47;;;;;;;;;;5062775;28;20444;-71
2022/11/01 14:04:32;;;;;;;6.10;1.90;;;;;;;;;;5067562;28;20484;-71
2022/11/01 14:07:14;;;;;;;9.03;1.53;;;;;;;;;;5068857;28;20955;-71
2022/11/01 14:09:49;;;;;;;2.90;1.00;;;;;;;;;;5067955;28;20480;-72
2022/11/01 14:12:38;;;;;;;4.07;1.43;;;;;;;;;;5071476;28;20455;-70
2022/11/01 14:15:28;;;;;;;5.47;1.93;;;;;;;;;;5071105;28;20479;-72
2022/11/01 14:18:08;;;;;;;5.20;1.10;;;;;;;;;;5070548;28;21090;-71
2022/11/01 14:20:49;;;;;;;4.20;1.57;;;;;;;;;;5060316;28;20476;-71
2022/11/01 14:23:34;;;;;;;6.80;1.37;;;;;;;;;;5065698;28;20609;-72
2022/11/01 14:26:28;;;;;;;4.60;1.23;;;;;;;;;;5072584;28;20447;-71
2022/11/01 14:29:07;;;;;;;6.37;1.30;;;;;;;;;;5022253;28;20479;-71
2022/11/01 14:31:35;;;;;;;7.63;1.80;;;;;;;;;;5070872;28;20491;-68
2022/11/01 14:34:06;;;;;;;8.67;2.43;;;;;;;;;;5072808;28;20499;-71
2022/11/01 14:36:38;;;;;;;6.20;1.00;;;;;;;;;;5068657;28;20923;-71
2022/11/01 14:39:08;;;;;;;9.60;1.33;;;;;;;;;;5071531;28;20589;-71
2022/11/01 14:41:39;;;;;;;6.80;1.77;;;;;;;;;;5072661;28;20492;-70
2022/11/01 14:44:16;;;;;;;5.07;1.10;;;;;;;;;;5069568;28;20544;-69
2022/11/01 14:46:45;;;;;;;5.43;1.23;;;;;;;;;;5067338;28;20506;-70
2022/11/01 14:49:28;;;;;;;3.60;1.40;;;;;;;;;;5070006;28;20464;-69
2022/11/01 14:52:05;;;;;;;3.73;1.20;;;;;;;;;;5066664;28;20468;-71
2022/11/01 14:54:41;;;;;;;5.97;1.37;;;;;;;;;;5068941;28;20516;-69
2022/11/01 14:57:19;;;;;;;4.87;1.40;;;;;;;;;;5066809;28;20529;-69
2022/11/01 14:59:48;;;;;;;6.03;2.17;;;;;;;;;;5068086;28;20474;-69
2022/11/01 15:02:15;;;;;;;11.57;2.33;;;;;;;;;;5064914;28;20494;-70
2022/11/01 15:04:43;;;;;;;6.30;1.37;;;;;;;;;;5063966;28;20491;-70